Time;durP1;ratioP1;P1;durP2;ratioP2;P2;SDS_P1;SDS_P2;PMS_P1;PMS_P2;Temp;Humidity;BMP_temperature;BMP_pressure;BME280_temperature;BME280_humidity;BME280_pressure;Samples;Min_cycle;Max_cycle;Signal;HPM_P1;HPM_P2
2023/04/02 00:01:53;;;;;;;17.40;9.15;;;;;;;6.35;100.00;101063.00;6160777;23;20048;-78
2023/04/02 00:04:21;;;;;;;18.65;9.45;;;;;;;6.36;100.00;101062.06;6163797;23;20432;-77
2023/04/02 00:07:29;;;;;;;21.35;10.05;;;;;;;6.31;100.00;101074.66;6160279;23;20122;-78
2023/04/02 00:09:55;;;;;;;17.33;10.07;;;;;;;6.31;100.00;101067.56;6163688;23;20167;-77
2023/04/02 00:12:21;;;;;;;21.33;10.52;;;;;;;6.41;100.00;101068.03;6161524;23;20008;-77
2023/04/02 00:14:50;;;;;;;22.20;12.10;;;;;;;6.29;100.00;101066.78;6161944;23;20031;-76
2023/04/02 00:17:17;;;;;;;16.02;9.07;;;;;;;6.19;100.00;101082.19;6164212;23;20012;-76
2023/04/02 00:19:57;;;;;;;18.13;9.52;;;;;;;6.19;100.00;101090.13;6160980;23;20024;-79
2023/04/02 00:22:28;;;;;;;13.73;8.32;;;;;;;6.08;100.00;101095.00;6165253;23;20234;-78
2023/04/02 00:24:55;;;;;;;15.98;8.73;;;;;;;6.19;100.00;101099.88;6139694;23;20511;-76
2023/04/02 00:27:21;;;;;;;13.80;7.78;;;;;;;6.11;100.00;101107.25;6165508;23;20013;-77
2023/04/02 00:29:49;;;;;;;13.25;7.20;;;;;;;6.02;100.00;101120.84;6165373;23;20079;-77
2023/04/02 00:32:23;;;;;;;14.63;8.15;;;;;;;6.08;100.00;101115.34;6143640;23;20017;-78
2023/04/02 00:34:49;;;;;;;12.20;6.57;;;;;;;5.92;100.00;101113.31;6170157;23;20013;-78
2023/04/02 00:37:26;;;;;;;18.80;8.02;;;;;;;6.15;100.00;101117.66;6171905;23;20024;-78
2023/04/02 00:40:04;;;;;;;11.45;6.47;;;;;;;6.02;100.00;101124.34;6173377;23;20001;-79
2023/04/02 00:42:30;;;;;;;17.08;7.93;;;;;;;6.06;100.00;101128.63;6172343;23;20016;-78
2023/04/02 00:44:57;;;;;;;13.80;7.25;;;;;;;6.00;100.00;101128.88;6171670;23;20027;-77
2023/04/02 00:47:42;;;;;;;16.77;8.43;;;;;;;6.15;100.00;101137.97;6171514;23;20043;-79
2023/04/02 00:50:10;;;;;;;12.18;7.32;;;;;;;6.11;100.00;101139.88;6147449;23;20024;-78
2023/04/02 00:52:38;;;;;;;8.77;5.88;;;;;;;5.96;100.00;101146.63;6145804;23;20032;-79
2023/04/02 00:55:12;;;;;;;8.43;5.65;;;;;;;6.09;100.00;101160.28;6147224;23;20028;-78
2023/04/02 00:57:41;;;;;;;7.70;4.25;;;;;;;5.95;100.00;101149.34;6172503;23;20816;-77
2023/04/02 01:00:28;;;;;;;8.30;5.93;;;;;;;5.91;100.00;101142.41;6173465;23;20020;-78
2023/04/02 01:03:15;;;;;;;9.98;6.00;;;;;;;5.86;100.00;101153.19;6171856;23;20112;-77
2023/04/02 01:05:43;;;;;;;14.85;6.10;;;;;;;5.92;100.00;101160.06;6171741;23;20013;-78
2023/04/02 01:08:33;;;;;;;9.63;5.00;;;;;;;5.84;100.00;101165.63;6146929;23;20017;-78
2023/04/02 01:11:22;;;;;;;13.80;6.45;;;;;;;5.84;100.00;101162.97;6145318;23;20077;-77
2023/04/02 01:14:00;;;;;;;11.23;6.85;;;;;;;5.80;100.00;101169.31;6171133;23;20017;-78
2023/04/02 01:16:29;;;;;;;10.45;6.15;;;;;;;5.88;100.00;101188.41;6169669;23;20455;-77
2023/04/02 01:19:19;;;;;;;10.15;6.18;;;;;;;5.90;100.00;101178.63;6168826;23;20013;-78
2023/04/02 01:22:05;;;;;;;8.43;6.18;;;;;;;5.81;100.00;101180.75;6170403;23;20087;-76
2023/04/02 01:24:36;;;;;;;11.68;5.80;;;;;;;5.86;100.00;101182.28;6170149;23;20023;-80
2023/04/02 01:27:17;;;;;;;8.73;5.40;;;;;;;5.77;100.00;101182.63;6172066;23;20009;-78
2023/04/02 01:29:47;;;;;;;10.90;5.75;;;;;;;5.74;100.00;101188.06;6170021;23;20088;-77
2023/04/02 01:32:17;;;;;;;15.85;7.63;;;;;;;5.83;100.00;101203.59;6170522;23;20013;-79
2023/04/02 01:34:46;;;;;;;10.63;5.85;;;;;;;5.84;100.00;101200.03;6143638;23;20219;-77
2023/04/02 01:37:21;;;;;;;11.60;6.50;;;;;;;5.93;100.00;101199.72;6168460;23;20415;-79
2023/04/02 01:40:13;;;;;;;18.73;8.45;;;;;;;5.81;100.00;101215.16;6144004;23;20013;-78
2023/04/02 01:43:11;;;;;;;18.75;8.85;;;;;;;5.66;100.00;101208.66;6143042;23;20336;-82
2023/04/02 01:45:37;;;;;;;18.42;9.52;;;;;;;5.79;100.00;101227.59;6166178;23;20016;-78
2023/04/02 01:48:15;;;;;;;17.70;10.50;;;;;;;5.66;100.00;101237.75;6165384;23;20017;-78
2023/04/02 01:50:44;;;;;;;20.40;9.48;;;;;;;5.76;100.00;101227.69;6166955;23;20699;-77
2023/04/02 01:53:13;;;;;;;12.77;7.65;;;;;;;5.67;100.00;101235.06;6141431;23;20100;-77
2023/04/02 01:55:42;;;;;;;12.20;8.23;;;;;;;5.68;100.00;101242.06;6165397;23;20031;-78
2023/04/02 01:58:13;;;;;;;18.75;8.52;;;;;;;5.61;100.00;101243.19;6166609;23;20009;-78
2023/04/02 02:00:48;;;;;;;15.10;8.27;;;;;;;5.61;100.00;101252.91;6139933;23;20019;-78
2023/04/02 02:03:15;;;;;;;10.10;6.43;;;;;;;5.59;100.00;101258.28;6165314;23;20024;-77
2023/04/02 02:05:41;;;;;;;17.40;8.25;;;;;;;5.67;100.00;101257.97;6139647;23;20021;-78
2023/04/02 02:08:20;;;;;;;13.65;7.43;;;;;;;5.55;100.00;101274.31;6163706;23;20596;-77
2023/04/02 02:10:49;;;;;;;15.77;8.23;;;;;;;5.45;100.00;101279.06;6164271;23;20672;-76
2023/04/02 02:13:15;;;;;;;14.35;7.93;;;;;;;5.33;100.00;101280.38;6162046;23;20151;-76
2023/04/02 02:15:41;;;;;;;15.43;7.32;;;;;;;5.31;100.00;101281.31;6162261;23;20024;-76
2023/04/02 02:18:11;;;;;;;13.15;8.15;;;;;;;5.39;100.00;101292.50;6161254;23;20614;-78
2023/04/02 02:20:37;;;;;;;13.73;8.13;;;;;;;5.35;100.00;101293.53;6160494;23;20063;-78
2023/04/02 02:23:04;;;;;;;14.60;8.95;;;;;;;5.39;100.00;101290.72;6163479;23;20436;-77
2023/04/02 02:25:33;;;;;;;17.88;8.35;;;;;;;5.38;100.00;101298.72;6162213;23;20447;-78
2023/04/02 02:28:05;;;;;;;10.70;6.68;;;;;;;5.36;100.00;101300.53;6161760;23;20013;-77
2023/04/02 02:30:54;;;;;;;12.18;7.25;;;;;;;5.32;100.00;101315.66;6161206;23;20021;-76
2023/04/02 02:33:24;;;;;;;15.73;8.15;;;;;;;5.28;100.00;101292.88;6137308;23;20106;-78
2023/04/02 02:36:15;;;;;;;14.85;8.27;;;;;;;5.30;100.00;101316.63;6164325;23;20040;-78
2023/04/02 02:39:05;;;;;;;14.73;7.30;;;;;;;5.28;100.00;101321.09;6162764;23;20127;-80
2023/04/02 02:41:55;;;;;;;14.18;7.18;;;;;;;5.37;100.00;101329.59;6163151;23;20013;-78
2023/04/02 02:44:27;;;;;;;16.35;7.00;;;;;;;5.33;100.00;101325.31;6163435;23;20024;-78
2023/04/02 02:46:59;;;;;;;17.27;8.43;;;;;;;5.30;100.00;101335.97;6163931;23;20702;-79
2023/04/02 02:49:34;;;;;;;14.90;7.88;;;;;;;5.12;100.00;101340.13;6163033;23;20059;-77
2023/04/02 02:52:08;;;;;;;17.83;7.65;;;;;;;5.13;100.00;101348.91;6162346;23;20528;-77
2023/04/02 02:55:09;;;;;;;13.38;7.15;;;;;;;5.16;100.00;101359.38;6162214;23;20021;-77
2023/04/02 02:57:53;;;;;;;10.65;6.88;;;;;;;5.12;100.00;101360.38;6161619;23;20673;-77
2023/04/02 03:00:23;;;;;;;14.50;7.78;;;;;;;5.02;100.00;101373.06;6136509;23;20541;-75
2023/04/02 03:02:51;;;;;;;10.88;6.22;;;;;;;4.89;100.00;101369.06;6162893;23;20471;-77
2023/04/02 03:05:25;;;;;;;12.95;6.43;;;;;;;4.84;100.00;101392.09;6162306;23;20013;-76
2023/04/02 03:07:57;;;;;;;16.73;7.97;;;;;;;4.91;100.00;101383.94;6138299;23;20017;-77
2023/04/02 03:10:44;;;;;;;13.25;7.05;;;;;;;4.79;100.00;101388.75;6162820;23;20099;-77
2023/04/02 03:13:34;;;;;;;18.38;6.47;;;;;;;4.79;100.00;101394.88;6162850;23;20089;-77
2023/04/02 03:16:15;;;;;;;16.60;7.97;;;;;;;4.67;100.00;101409.34;6162475;23;20024;-75
2023/04/02 03:19:02;;;;;;;16.10;7.75;;;;;;;4.80;100.00;101404.53;6161363;23;20099;-79
2023/04/02 03:21:47;;;;;;;15.50;7.32;;;;;;;4.78;100.00;101414.31;6160941;23;20025;-77
2023/04/02 03:24:25;;;;;;;13.15;7.50;;;;;;;4.77;100.00;101415.22;6137547;23;20296;-78
2023/04/02 03:26:58;;;;;;;11.65;6.05;;;;;;;4.84;100.00;101424.69;6136549;23;20021;-78
2023/04/02 03:29:29;;;;;;;11.82;7.05;;;;;;;4.86;100.00;101417.56;6161325;23;20016;-76
2023/04/02 03:32:18;;;;;;;13.82;6.05;;;;;;;4.76;100.00;101431.09;6161635;23;20043;-78
2023/04/02 03:34:50;;;;;;;13.18;6.90;;;;;;;4.89;100.00;101432.47;6163170;23;20106;-78
2023/04/02 03:37:20;;;;;;;11.18;6.15;;;;;;;4.76;100.00;101433.75;6136262;23;20020;-79
2023/04/02 03:39:50;;;;;;;11.60;6.50;;;;;;;4.80;100.00;101430.97;6135462;23;20024;-76
2023/04/02 03:42:24;;;;;;;10.70;6.40;;;;;;;4.74;100.00;101433.78;6159637;23;20860;-77
2023/04/02 03:44:57;;;;;;;12.35;6.05;;;;;;;4.83;100.00;101444.09;6159627;23;20021;-77
2023/04/02 03:47:35;;;;;;;10.80;5.40;;;;;;;4.80;100.00;101454.75;6135171;23;20028;-78
2023/04/02 03:50:49;;;;;;;11.05;6.15;;;;;;;4.68;100.00;101463.91;6160847;23;20233;-78
2023/04/02 03:53:15;;;;;;;9.90;6.15;;;;;;;4.71;100.00;101456.78;6047405;23;20113;-76
2023/04/02 03:55:42;;;;;;;11.02;5.43;;;;;;;4.72;100.00;101467.31;6045225;23;20089;-79
2023/04/02 03:58:15;;;;;;;10.82;5.72;;;;;;;4.75;100.00;101469.00;6045394;23;20117;-78
2023/04/02 04:01:12;;;;;;;13.68;5.55;;;;;;;4.62;100.00;101490.50;6045533;23;20222;-79
2023/04/02 04:03:43;;;;;;;10.82;5.45;;;;;;;4.70;100.00;101481.47;6020363;23;20026;-78
2023/04/02 04:06:19;;;;;;;10.95;5.85;;;;;;;4.64;100.00;101504.50;6069731;23;20022;-79
2023/04/02 04:08:53;;;;;;;17.17;5.43;;;;;;;4.72;100.00;101495.50;6047403;23;20022;-78
2023/04/02 04:11:28;;;;;;;12.02;7.07;;;;;;;4.68;100.00;101500.88;6070084;23;20014;-80
2023/04/02 04:14:18;;;;;;;14.98;7.18;;;;;;;4.75;100.00;101512.13;6071316;23;20018;-78
2023/04/02 04:17:14;;;;;;;10.95;6.95;;;;;;;4.62;100.00;101521.31;6047902;23;20023;-79
2023/04/02 04:20:24;;;;;;;14.75;7.07;;;;;;;4.70;100.00;101529.03;6069741;23;20022;-77
2023/04/02 04:22:54;;;;;;;14.60;7.85;;;;;;;4.65;100.00;101534.44;5988977;23;20012;-78
2023/04/02 04:25:33;;;;;;;18.00;9.02;;;;;;;4.61;100.00;101532.78;5989543;23;20015;-78
2023/04/02 04:28:37;;;;;;;18.10;9.35;;;;;;;4.54;100.00;101542.66;6058485;23;20041;-78
2023/04/02 04:31:23;;;;;;;22.17;9.98;;;;;;;4.49;100.00;101551.59;6017587;23;20038;-77
2023/04/02 04:34:04;;;;;;;14.55;8.00;;;;;;;4.30;100.00;101556.50;6046979;23;20045;-76
2023/04/02 04:36:52;;;;;;;11.40;6.65;;;;;;;4.23;100.00;101560.22;6020734;23;20074;-78
2023/04/02 04:39:35;;;;;;;12.40;7.15;;;;;;;4.31;100.00;101566.16;6021303;23;20024;-78
2023/04/02 04:42:03;;;;;;;;;;;;;;;4.33;100.00;101561.72;6022970;23;20561;-76
2023/04/02 04:44:54;;;;;;;12.38;6.82;;;;;;;4.19;100.00;101566.47;6021611;23;19920;-78
2023/04/02 04:47:36;;;;;;;13.45;7.53;;;;;;;4.17;100.00;101582.34;6045729;23;20081;-78
2023/04/02 04:50:18;;;;;;;12.07;7.03;;;;;;;4.12;100.00;101589.53;6020750;23;20020;-79
2023/04/02 04:52:45;;;;;;;9.60;5.30;;;;;;;4.16;100.00;101588.53;6030589;23;20469;-78
2023/04/02 04:55:27;;;;;;;13.38;6.97;;;;;;;3.95;100.00;101595.19;6131244;23;20020;-76
2023/04/02 04:58:00;;;;;;;13.77;5.88;;;;;;;4.04;100.00;101600.25;6105655;23;20020;-78
2023/04/02 05:00:27;;;;;;;8.10;4.07;;;;;;;3.92;100.00;101608.47;6104473;23;20013;-78
2023/04/02 05:03:29;;;;;;;9.65;5.18;;;;;;;3.97;100.00;101617.16;6104751;23;20568;-78
2023/04/02 05:06:07;;;;;;;9.13;3.85;;;;;;;3.89;100.00;101624.38;6104345;23;20070;-77
2023/04/02 05:08:38;;;;;;;7.63;4.03;;;;;;;3.81;100.00;101627.16;6127715;23;20020;-76
2023/04/02 05:11:14;;;;;;;9.55;4.65;;;;;;;3.81;100.00;101627.16;6102490;23;20010;-78
2023/04/02 05:13:54;;;;;;;11.77;4.35;;;;;;;3.78;100.00;101647.50;6104016;23;20005;-79
2023/04/02 05:17:00;;;;;;;11.02;5.90;;;;;;;3.59;100.00;101658.44;6128814;23;20206;-76
2023/04/02 05:19:45;;;;;;;9.63;3.78;;;;;;;3.58;100.00;101654.06;6124927;23;20025;-76
2023/04/02 05:22:20;;;;;;;8.82;3.75;;;;;;;3.63;100.00;101664.50;6103968;23;20348;-79
2023/04/02 05:24:57;;;;;;;9.43;3.30;;;;;;;3.68;100.00;101673.19;6103719;23;20028;-78
2023/04/02 05:27:51;;;;;;;9.88;3.53;;;;;;;3.59;100.00;101678.66;6103783;23;20084;-77
2023/04/02 05:30:26;;;;;;;6.78;4.38;;;;;;;3.66;100.00;101682.03;6101510;23;20010;-78
2023/04/02 05:33:01;;;;;;;16.67;3.95;;;;;;;3.64;100.00;101690.84;6104552;23;20052;-77
2023/04/02 05:35:35;;;;;;;10.15;4.05;;;;;;;3.46;100.00;101706.16;6130014;23;20286;-77
2023/04/02 05:38:02;;;;;;;8.98;4.38;;;;;;;3.61;100.00;101703.22;6124950;23;20022;-77
2023/04/02 05:40:45;;;;;;;11.20;4.97;;;;;;;3.63;100.00;101709.34;6104288;23;20666;-79
2023/04/02 05:43:17;;;;;;;9.98;3.40;;;;;;;3.59;100.00;101713.81;6129726;23;20036;-77
2023/04/02 05:45:51;;;;;;;5.10;3.22;;;;;;;3.53;100.00;101713.94;6128047;23;20105;-76
2023/04/02 05:48:34;;;;;;;5.22;3.17;;;;;;;3.43;100.00;101728.19;6128155;23;20024;-76
2023/04/02 05:51:03;;;;;;;9.60;3.15;;;;;;;3.51;100.00;101742.09;6131557;23;20144;-76
2023/04/02 05:53:35;;;;;;;7.20;3.30;;;;;;;3.44;100.00;101742.25;6125504;23;20017;-79
2023/04/02 05:56:33;;;;;;;11.25;2.95;;;;;;;3.48;100.00;101747.44;6127932;23;20347;-78
2023/04/02 05:59:06;;;;;;;3.38;2.25;;;;;;;3.48;100.00;101759.75;6087919;23;20025;-81
2023/04/02 06:01:57;;;;;;;6.25;2.85;;;;;;;3.50;100.00;101755.31;6105009;23;20021;-77
2023/04/02 06:04:54;;;;;;;3.92;2.20;;;;;;;3.30;100.00;101760.94;6107261;23;20547;-78
2023/04/02 06:07:39;;;;;;;5.25;2.08;;;;;;;3.48;100.00;101771.16;6129059;23;20018;-77
2023/04/02 06:10:10;;;;;;;8.68;3.03;;;;;;;3.52;100.00;101769.34;6129268;23;20017;-76
2023/04/02 06:12:44;;;;;;;5.55;1.83;;;;;;;3.39;100.00;101773.97;6129081;23;20100;-79
2023/04/02 06:15:22;;;;;;;4.47;2.55;;;;;;;3.43;100.00;101780.94;6105796;23;20480;-79
2023/04/02 06:18:00;;;;;;;9.23;2.13;;;;;;;3.36;100.00;101781.91;6100428;23;20037;-80
2023/04/02 06:20:27;;;;;;;16.38;3.17;;;;;;;3.51;100.00;101784.28;6124791;23;20021;-77
2023/04/02 06:23:05;;;;;;;9.35;2.50;;;;;;;3.50;100.00;101776.41;6124497;23;20014;-78
2023/04/02 06:25:56;;;;;;;6.43;2.47;;;;;;;3.37;100.00;101797.72;6100794;23;20140;-78
2023/04/02 06:28:35;;;;;;;4.90;2.22;;;;;;;3.36;100.00;101805.66;6128055;23;20190;-77
2023/04/02 06:31:09;;;;;;;4.20;2.40;;;;;;;3.34;100.00;101805.69;6130500;23;20018;-79
2023/04/02 06:33:36;;;;;;;6.88;2.92;;;;;;;3.37;100.00;101824.09;6126975;23;20017;-80
2023/04/02 06:36:04;;;;;;;9.80;2.80;;;;;;;3.34;100.00;101823.28;6103411;23;20450;-78
2023/04/02 06:38:34;;;;;;;4.00;2.53;;;;;;;3.46;100.00;101838.00;6103676;23;20021;-78
2023/04/02 06:41:20;;;;;;;6.72;3.55;;;;;;;3.33;100.00;101846.13;6134579;23;20080;-79
2023/04/02 06:44:13;;;;;;;3.83;2.28;;;;;;;3.47;100.00;101850.31;6158979;23;20013;-77
2023/04/02 06:47:11;;;;;;;10.85;2.50;;;;;;;3.26;100.00;101873.50;6143089;23;20608;-77
2023/04/02 06:49:43;;;;;;;7.53;2.58;;;;;;;3.22;100.00;101858.63;6136027;23;20012;-77
2023/04/02 06:52:15;;;;;;;;;;;;;;;3.10;100.00;101866.72;6163772;23;20096;-77
2023/04/02 06:54:41;;;;;;;7.63;2.30;;;;;;;3.34;100.00;101882.13;6139710;23;19916;-77
2023/04/02 06:57:11;;;;;;;8.20;1.90;;;;;;;3.20;100.00;101889.38;6140519;23;20025;-77
2023/04/02 06:59:40;;;;;;;6.57;3.30;;;;;;;3.37;100.00;101884.72;6140199;23;20009;-78
2023/04/02 07:02:36;;;;;;;3.65;2.50;;;;;;;3.37;100.00;101892.63;6164778;23;20020;-77
2023/04/02 07:05:10;;;;;;;8.65;2.28;;;;;;;3.45;100.00;101895.13;6138417;23;20052;-79
2023/04/02 07:07:40;;;;;;;8.65;2.03;;;;;;;3.50;100.00;101905.59;6162884;23;20278;-78
2023/04/02 07:10:10;;;;;;;4.65;2.38;;;;;;;3.60;100.00;101912.44;6166459;23;20083;-78
2023/04/02 07:12:37;;;;;;;11.93;2.63;;;;;;;3.66;100.00;101914.97;6164493;23;20024;-77
2023/04/02 07:15:03;;;;;;;9.88;3.33;;;;;;;3.47;100.00;101926.75;6163545;23;20020;-75
2023/04/02 07:17:30;;;;;;;11.10;2.33;;;;;;;3.29;100.00;101926.16;6161487;23;20023;-75
2023/04/02 07:19:55;;;;;;;2.67;1.83;;;;;;;3.54;100.00;101929.25;6140441;23;20096;-78
2023/04/02 07:22:25;;;;;;;4.97;2.45;;;;;;;3.44;100.00;101946.13;6166194;23;20020;-79
2023/04/02 07:24:58;;;;;;;4.78;2.70;;;;;;;3.59;100.00;101942.38;6166449;23;20012;-79
2023/04/02 07:27:24;;;;;;;7.30;2.15;;;;;;;3.50;100.00;101939.88;6192907;23;20431;-78
2023/04/02 07:29:49;;;;;;;12.82;4.45;;;;;;;3.76;100.00;101953.47;6193367;23;20136;-78
2023/04/02 07:32:18;;;;;;;6.65;1.75;;;;;;;3.50;100.00;101953.06;6166171;23;20042;-79
2023/04/02 07:34:50;;;;;;;4.80;2.42;;;;;;;3.37;100.00;101974.34;6194498;23;20532;-79
2023/04/02 07:37:16;;;;;;;8.43;2.40;;;;;;;3.57;100.00;101962.63;6140224;23;20064;-78
2023/04/02 07:39:41;;;;;;;5.25;2.30;;;;;;;3.53;100.00;101977.63;6141340;23;20009;-80
2023/04/02 07:42:07;;;;;;;5.70;2.10;;;;;;;3.56;100.00;101966.13;6141544;23;20592;-78
2023/04/02 07:44:33;;;;;;;5.25;3.08;;;;;;;3.68;100.00;101981.78;6190630;23;20024;-79
2023/04/02 07:46:58;;;;;;;6.10;2.95;;;;;;;3.82;100.00;101984.19;6166624;23;20071;-76
2023/04/02 07:49:23;;;;;;;6.00;2.90;;;;;;;3.78;100.00;101978.09;6141070;23;20008;-78
2023/04/02 07:51:50;;;;;;;5.25;3.00;;;;;;;3.98;100.00;101985.66;6166865;23;20016;-76
2023/04/02 07:54:16;;;;;;;18.08;4.88;;;;;;;3.77;100.00;101986.91;6193024;23;20095;-77
2023/04/02 07:56:42;;;;;;;6.10;2.40;;;;;;;3.74;100.00;102005.41;6137646;23;20100;-78
2023/04/02 07:59:08;;;;;;;2.85;2.03;;;;;;;3.58;100.00;101998.66;6163644;23;20036;-78
2023/04/02 08:01:36;;;;;;;5.18;2.38;;;;;;;3.67;100.00;102002.91;6163508;23;20087;-76
2023/04/02 08:04:03;;;;;;;3.30;2.10;;;;;;;3.51;100.00;102018.06;6160656;23;20335;-78
2023/04/02 08:06:29;;;;;;;6.43;2.85;;;;;;;3.88;100.00;101997.28;6163310;23;20028;-78
2023/04/02 08:08:58;;;;;;;7.07;2.75;;;;;;;3.70;100.00;102016.91;6137066;23;20016;-77
2023/04/02 08:11:24;;;;;;;12.35;3.03;;;;;;;3.87;100.00;102006.97;6163694;23;20325;-77
2023/04/02 08:13:50;;;;;;;7.13;1.92;;;;;;;3.68;100.00;102021.34;6161693;23;20017;-78
2023/04/02 08:16:16;;;;;;;3.97;2.13;;;;;;;3.64;100.00;102030.19;6164499;23;20013;-79
2023/04/02 08:18:41;;;;;;;8.68;1.90;;;;;;;3.67;100.00;102031.94;6162321;23;20020;-79
2023/04/02 08:21:09;;;;;;;2.38;1.98;;;;;;;3.62;100.00;102034.63;6161454;23;20256;-79
2023/04/02 08:23:36;;;;;;;6.72;2.45;;;;;;;3.73;100.00;102043.25;6187260;23;20062;-79
2023/04/02 08:26:03;;;;;;;6.07;2.38;;;;;;;3.90;100.00;102048.25;6191018;23;20008;-77
2023/04/02 08:28:32;;;;;;;5.03;2.22;;;;;;;3.82;100.00;102061.56;6192615;23;20404;-79
2023/04/02 08:30:58;;;;;;;6.35;1.83;;;;;;;3.99;100.00;102042.81;6193529;23;20012;-79
2023/04/02 08:33:24;;;;;;;8.13;2.20;;;;;;;4.11;100.00;102054.91;6165662;23;20757;-78
2023/04/02 08:35:51;;;;;;;8.57;2.40;;;;;;;4.20;100.00;102046.84;6191963;23;20012;-78
2023/04/02 08:38:18;;;;;;;7.50;2.65;;;;;;;4.42;100.00;102042.06;6163710;23;20104;-79
2023/04/02 08:40:55;;;;;;;5.90;1.90;;;;;;;3.96;100.00;102055.19;6191787;23;20067;-79
2023/04/02 08:43:30;;;;;;;4.72;2.42;;;;;;;4.35;100.00;102058.91;6166679;23;20020;-79
2023/04/02 08:46:16;;;;;;;4.00;1.95;;;;;;;4.51;100.00;102060.34;6194103;23;20016;-79
2023/04/02 08:48:46;;;;;;;7.65;2.40;;;;;;;4.39;100.00;102071.16;6190514;23;20439;-78
2023/04/02 08:51:25;;;;;;;6.55;2.30;;;;;;;4.69;100.00;102085.56;6165355;23;20023;-79
2023/04/02 08:53:58;;;;;;;4.80;2.25;;;;;;;4.37;100.00;102089.69;6164553;23;20114;-78
2023/04/02 08:57:09;;;;;;;3.60;2.22;;;;;;;4.50;100.00;102092.09;6166225;23;20396;-81
2023/04/02 08:59:39;;;;;;;4.25;1.88;;;;;;;4.73;100.00;102100.47;6154006;23;20044;-80
2023/04/02 09:02:21;;;;;;;5.20;2.15;;;;;;;4.98;100.00;102105.28;6192428;23;20016;-78
2023/04/02 09:04:47;;;;;;;7.45;1.85;;;;;;;4.65;100.00;102120.88;6192252;23;20086;-80
2023/04/02 09:07:15;;;;;;;5.75;2.58;;;;;;;5.22;100.00;102110.09;6191099;23;20449;-79
2023/04/02 09:09:42;;;;;;;5.43;2.10;;;;;;;4.92;100.00;102116.84;6192734;23;20020;-79
2023/04/02 09:12:24;;;;;;;6.45;2.50;;;;;;;5.07;100.00;102121.84;6164286;23;20343;-77
2023/04/02 09:14:53;;;;;;;7.00;2.38;;;;;;;4.83;100.00;102128.47;6165483;23;20683;-78
2023/04/02 09:17:24;;;;;;;5.13;2.65;;;;;;;4.94;100.00;102138.84;6164759;23;20059;-78
2023/04/02 09:20:01;;;;;;;7.20;3.17;;;;;;;5.34;100.00;102140.69;6165538;23;20013;-80
2023/04/02 09:22:30;;;;;;;7.20;2.85;;;;;;;5.19;100.00;102144.50;6164712;23;20016;-79
2023/04/02 09:25:01;;;;;;;5.20;2.95;;;;;;;5.09;100.00;102135.88;6189893;23;20023;-78
2023/04/02 09:27:32;;;;;;;6.93;2.15;;;;;;;5.12;100.00;102142.88;6161680;23;20012;-78
2023/04/02 09:30:20;;;;;;;9.77;2.58;;;;;;;5.13;100.00;102156.09;6187906;23;20013;-78
2023/04/02 09:32:51;;;;;;;4.13;2.00;;;;;;;5.17;100.00;102170.09;6135962;23;20145;-79
2023/04/02 09:35:20;;;;;;;5.05;2.35;;;;;;;4.98;100.00;102152.88;6188969;23;20012;-78
2023/04/02 09:37:46;;;;;;;6.00;2.30;;;;;;;5.14;100.00;102160.47;6189485;23;20733;-79
2023/04/02 09:40:18;;;;;;;8.35;2.40;;;;;;;5.40;100.00;102164.34;6163080;23;20016;-79
2023/04/02 09:42:43;;;;;;;7.68;2.10;;;;;;;5.04;100.00;102168.59;6187774;23;20020;-78
2023/04/02 09:45:22;;;;;;;4.00;2.13;;;;;;;5.16;100.00;102168.34;6162740;23;20023;-78
2023/04/02 09:47:49;;;;;;;6.93;2.15;;;;;;;5.05;100.00;102165.06;6161960;23;20079;-78
2023/04/02 09:50:22;;;;;;;5.45;2.65;;;;;;;5.09;100.00;102170.25;6136723;23;20009;-78
2023/04/02 09:52:50;;;;;;;8.35;2.20;;;;;;;4.84;100.00;102185.69;6188264;23;20009;-78
2023/04/02 09:55:18;;;;;;;4.63;2.05;;;;;;;5.05;100.00;102176.50;6161092;23;20100;-77
2023/04/02 09:57:49;;;;;;;7.20;2.60;;;;;;;5.00;100.00;102186.28;6189206;23;20110;-78
2023/04/02 10:00:18;;;;;;;4.72;2.45;;;;;;;5.19;100.00;102195.63;6161950;23;20016;-78
2023/04/02 10:03:04;;;;;;;6.10;2.10;;;;;;;5.49;100.00;102193.28;6159792;23;20047;-77
2023/04/02 10:05:34;;;;;;;6.93;1.65;;;;;;;4.96;100.00;102213.66;6158683;23;20020;-80
2023/04/02 10:08:15;;;;;;;2.30;1.85;;;;;;;4.72;100.00;102217.63;6156776;23;20412;-77
2023/04/02 10:10:45;;;;;;;3.53;2.17;;;;;;;4.87;100.00;102230.59;6156601;23;20023;-72
2023/04/02 10:13:20;;;;;;;2.78;2.03;;;;;;;4.55;100.00;102244.31;6156087;23;20020;-74
2023/04/02 10:16:01;;;;;;;3.53;2.75;;;;;;;4.93;100.00;102248.09;6156836;23;20012;-75
2023/04/02 10:18:38;;;;;;;6.50;2.33;;;;;;;4.59;100.00;102247.78;6183192;23;20013;-76
2023/04/02 10:21:05;;;;;;;7.72;1.98;;;;;;;4.97;100.00;102248.91;6181216;23;20012;-75
2023/04/02 10:23:31;;;;;;;6.10;1.90;;;;;;;4.70;100.00;102248.47;6182735;23;20021;-75
2023/04/02 10:26:02;;;;;;;3.97;1.63;;;;;;;4.85;100.00;102255.28;6156241;23;20020;-75
2023/04/02 10:28:46;;;;;;;6.68;2.13;;;;;;;4.70;100.00;102260.81;6181743;23;20810;-75
2023/04/02 10:31:24;;;;;;;7.95;2.30;;;;;;;4.39;100.00;102262.16;6132711;23;20035;-76
2023/04/02 10:33:56;;;;;;;8.30;2.22;;;;;;;4.43;100.00;102265.66;6132117;23;20091;-75
2023/04/02 10:36:35;;;;;;;;;;;;;;;4.34;100.00;102282.47;6184067;23;20880;-75
2023/04/02 10:39:10;;;;;;;5.07;2.15;;;;;;;4.40;100.00;102285.03;6157150;23;19922;-76
2023/04/02 10:41:45;;;;;;;7.88;2.10;;;;;;;5.48;100.00;102267.38;6181725;23;20012;-77
2023/04/02 10:44:38;;;;;;;7.18;2.00;;;;;;;6.08;100.00;102265.28;6156488;23;20040;-76
2023/04/02 10:47:48;;;;;;;3.67;1.90;;;;;;;6.08;99.41;102264.41;6157964;23;20017;-75
2023/04/02 10:50:36;;;;;;;3.60;1.77;;;;;;;6.28;96.38;102256.91;6152620;23;20323;-76
2023/04/02 10:53:10;;;;;;;2.97;1.95;;;;;;;6.43;95.96;102259.19;6135854;23;20016;-75
2023/04/02 10:55:41;;;;;;;4.65;1.60;;;;;;;7.10;94.06;102263.72;6182372;23;20090;-76
2023/04/02 10:58:46;;;;;;;4.65;1.92;;;;;;;7.30;94.65;102269.38;6178474;23;20017;-76
2023/04/02 11:01:22;;;;;;;8.55;1.67;;;;;;;6.99;91.41;102274.63;6181528;23;20267;-77
2023/04/02 11:03:59;;;;;;;5.90;3.25;;;;;;;7.36;92.36;102274.50;6155443;23;20808;-75
2023/04/02 11:06:36;;;;;;;9.57;2.75;;;;;;;6.60;90.49;102268.50;6132825;23;20865;-74
2023/04/02 11:09:06;;;;;;;7.63;1.50;;;;;;;6.75;89.69;102276.09;6183907;23;20016;-75
2023/04/02 11:11:53;;;;;;;19.83;2.72;;;;;;;7.40;92.38;102270.88;6183682;23;20103;-75
2023/04/02 11:14:32;;;;;;;6.65;2.13;;;;;;;7.45;89.33;102298.16;6185974;23;20008;-76
2023/04/02 11:17:01;;;;;;;5.20;2.42;;;;;;;7.91;87.93;102262.34;6184738;23;20020;-75
2023/04/02 11:19:32;;;;;;;8.00;1.83;;;;;;;7.42;82.28;102286.75;6185413;23;20022;-75
2023/04/02 11:22:02;;;;;;;3.20;1.77;;;;;;;7.29;83.17;102283.56;6158104;23;20071;-76
2023/04/02 11:24:29;;;;;;;7.00;2.28;;;;;;;7.47;82.55;102282.19;6154695;23;20088;-75
2023/04/02 11:27:14;;;;;;;6.28;2.67;;;;;;;7.47;84.18;102276.88;6180652;23;20012;-76
2023/04/02 11:29:42;;;;;;;9.02;2.20;;;;;;;7.89;80.59;102274.81;6153390;23;20806;-76
2023/04/02 11:32:13;;;;;;;9.00;2.40;;;;;;;7.25;79.29;102288.06;6180450;23;20451;-75
2023/04/02 11:34:48;;;;;;;8.02;2.00;;;;;;;7.44;81.62;102288.47;6156352;23;20012;-75
2023/04/02 11:37:37;;;;;;;5.20;2.05;;;;;;;7.87;82.37;102289.03;6155523;23;20568;-75
2023/04/02 11:40:17;;;;;;;10.48;2.22;;;;;;;7.48;76.70;102287.47;6155918;23;20016;-76
2023/04/02 11:42:48;;;;;;;3.67;1.92;;;;;;;7.65;81.50;102286.13;6154822;23;20083;-77
2023/04/02 11:45:23;;;;;;;3.35;2.00;;;;;;;7.68;81.00;102283.38;6183307;23;20044;-76
2023/04/02 11:48:02;;;;;;;5.07;2.13;;;;;;;7.24;79.60;102293.44;6183171;23;20023;-74
2023/04/02 11:50:34;;;;;;;2.60;2.00;;;;;;;7.61;81.01;102300.41;6156946;23;20745;-76
2023/04/02 11:53:16;;;;;;;15.30;2.23;;;;;;;7.94;81.65;102293.28;6182965;23;20015;-75
2023/04/02 11:56:15;;;;;;;4.60;1.80;;;;;;;7.82;83.26;102299.78;6154956;23;20020;-76
2023/04/02 11:59:09;;;;;;;4.18;2.78;;;;;;;7.84;80.66;102299.75;6184386;23;20016;-76
2023/04/02 12:01:59;;;;;;;5.60;2.28;;;;;;;8.35;83.56;102304.44;6156279;23;20721;-75
2023/04/02 12:05:03;;;;;;;10.27;2.53;;;;;;;7.79;85.79;102311.38;6182753;23;20763;-75